createdAt,value
2018-01-29T00:00:28.032Z,6.10
2018-01-29T00:02:55.566Z,5.25
2018-01-29T00:05:23.912Z,7.03
2018-01-29T00:07:51.510Z,5.80
2018-01-29T00:10:19.042Z,7.10
2018-01-29T00:12:46.595Z,5.67
2018-01-29T00:15:15.622Z,8.68
2018-01-29T00:17:43.157Z,5.97
2018-01-29T00:20:10.690Z,7.97
2018-01-29T00:22:38.663Z,6.37
2018-01-29T00:25:06.205Z,5.10
2018-01-29T00:27:33.858Z,4.97
2018-01-29T00:30:02.192Z,6.40
2018-01-29T00:32:29.728Z,6.77
2018-01-29T00:34:57.259Z,5.47
2018-01-29T00:37:24.859Z,5.50
2018-01-29T00:39:52.915Z,5.30
2018-01-29T00:42:21.461Z,5.90
2018-01-29T00:44:49.783Z,6.07
2018-01-29T00:47:17.406Z,5.50
2018-01-29T00:49:44.936Z,5.60
2018-01-29T00:52:12.523Z,5.53
2018-01-29T00:54:40.054Z,6.20
2018-01-29T00:57:07.587Z,5.70
2018-01-29T00:59:35.156Z,6.33
2018-01-29T01:02:02.684Z,5.70
2018-01-29T01:04:30.983Z,5.70
2018-01-29T01:06:58.835Z,5.40
2018-01-29T01:09:26.371Z,4.97
2018-01-29T01:11:53.927Z,5.23
2018-01-29T01:14:21.487Z,4.90
2018-01-29T01:16:50.052Z,4.97
2018-01-29T01:19:17.583Z,5.22
2018-01-29T01:21:45.874Z,5.77
2018-01-29T01:24:14.404Z,5.45
2018-01-29T01:29:18.684Z,4.53
2018-01-29T01:31:46.215Z,4.37
2018-01-29T01:34:24.487Z,4.72
2018-01-29T01:41:09.372Z,5.30
2018-01-29T01:43:37.671Z,4.30
2018-01-29T01:46:05.297Z,4.43
2018-01-29T01:48:33.143Z,4.62
2018-01-29T01:51:00.758Z,4.12
2018-01-29T01:53:28.549Z,4.93
2018-01-29T01:55:56.113Z,4.67
2018-01-29T01:58:23.659Z,5.00
2018-01-29T02:00:51.197Z,4.37
2018-01-29T02:03:18.768Z,4.93
2018-01-29T02:05:46.391Z,5.80
2018-01-29T02:08:24.934Z,4.40
2018-01-29T02:20:32.554Z,4.87
2018-01-29T02:23:00.159Z,5.47
2018-01-29T02:25:27.721Z,5.30
2018-01-29T02:27:55.686Z,4.87
2018-01-29T02:30:23.228Z,5.03
2018-01-29T02:32:51.584Z,5.10
2018-01-29T02:35:19.180Z,5.10
2018-01-29T02:37:46.746Z,5.53
2018-01-29T02:40:24.861Z,5.05
2018-01-29T02:46:00.018Z,5.30
2018-01-29T02:48:27.577Z,4.90
2018-01-29T02:50:55.192Z,4.80
2018-01-29T02:53:22.800Z,5.93
2018-01-29T02:55:50.389Z,5.70
2018-01-29T02:58:17.932Z,5.10
2018-01-29T03:00:45.497Z,4.40
2018-01-29T03:03:25.368Z,5.55
2018-01-29T03:11:58.305Z,8.00
2018-01-29T03:14:25.854Z,4.80
2018-01-29T03:16:53.383Z,4.80
2018-01-29T03:19:20.943Z,5.13
2018-01-29T03:21:48.475Z,6.28
2018-01-29T03:24:17.181Z,6.00
2018-01-29T03:26:44.744Z,5.60
2018-01-29T03:29:13.116Z,5.03
2018-01-29T03:31:40.648Z,5.70
2018-01-29T03:34:08.475Z,5.67
2018-01-29T03:36:36.007Z,7.27
2018-01-29T03:39:03.535Z,5.60
2018-01-29T03:41:31.107Z,7.20
2018-01-29T03:43:59.399Z,8.80
2018-01-29T03:46:27.247Z,6.47
2018-01-29T03:48:55.558Z,9.20
2018-01-29T03:51:23.090Z,8.30
2018-01-29T03:53:50.614Z,6.97
2018-01-29T03:56:18.924Z,7.00
2018-01-29T03:58:46.428Z,5.60
2018-01-29T04:01:28.771Z,6.20
2018-01-29T04:06:44.484Z,6.60
2018-01-29T04:09:12.087Z,6.83
2018-01-29T04:11:39.633Z,6.90
2018-01-29T04:14:07.513Z,6.80
2018-01-29T04:16:35.055Z,6.60
2018-01-29T04:19:02.596Z,8.23
2018-01-29T04:21:30.972Z,8.50
2018-01-29T04:23:59.281Z,7.50
2018-01-29T04:26:26.836Z,7.60
2018-01-29T04:28:54.409Z,8.97
2018-01-29T04:31:21.941Z,10.40
2018-01-29T04:33:49.548Z,9.83
2018-01-29T04:36:17.521Z,8.47
2018-01-29T04:38:45.057Z,9.67
2018-01-29T04:41:12.583Z,11.33
2018-01-29T04:43:40.136Z,9.83
2018-01-29T04:46:10.283Z,7.73
2018-01-29T04:48:38.253Z,8.80
2018-01-29T04:51:05.816Z,10.40
2018-01-29T04:53:33.343Z,9.57
2018-01-29T04:56:00.905Z,10.27
2018-01-29T04:58:29.563Z,8.77
2018-01-29T05:00:57.095Z,11.10
2018-01-29T05:03:24.631Z,11.20
2018-01-29T05:05:52.205Z,12.43
2018-01-29T05:08:19.739Z,10.95
2018-01-29T05:10:48.194Z,9.70
2018-01-29T05:13:16.475Z,11.38
2018-01-29T05:15:44.003Z,12.70
2018-01-29T05:18:11.536Z,12.13
2018-01-29T05:20:39.311Z,20.23
2018-01-29T05:23:06.933Z,21.00
2018-01-29T05:25:34.529Z,18.00
2018-01-29T05:28:02.272Z,17.60
2018-01-29T05:30:29.820Z,13.47
2018-01-29T05:32:57.436Z,13.82
2018-01-29T05:35:28.904Z,12.20
2018-01-29T05:37:56.686Z,15.80
2018-01-29T05:40:25.095Z,15.07
2018-01-29T05:42:52.688Z,16.87
2018-01-29T05:45:20.240Z,13.93
2018-01-29T05:47:47.796Z,12.40
2018-01-29T05:50:16.349Z,15.80
2018-01-29T05:52:44.657Z,15.00
2018-01-29T05:55:12.198Z,16.00
2018-01-29T05:57:43.162Z,14.90
2018-01-29T06:00:11.188Z,16.63
2018-01-29T06:02:39.487Z,15.30
2018-01-29T06:05:07.272Z,14.83
2018-01-29T06:07:34.814Z,15.77
2018-01-29T06:10:02.351Z,18.20
2018-01-29T06:12:29.920Z,18.03
2018-01-29T06:14:57.455Z,13.80
2018-01-29T06:17:27.056Z,16.40
2018-01-29T06:19:54.614Z,16.50
2018-01-29T06:22:22.203Z,18.23
2018-01-29T06:24:58.484Z,18.75
2018-01-29T06:27:26.987Z,15.55
2018-01-29T06:29:54.528Z,17.20
2018-01-29T06:32:23.033Z,24.03
2018-01-29T06:34:50.571Z,18.50
2018-01-29T06:37:18.099Z,22.67
2018-01-29T06:39:45.807Z,20.63
2018-01-29T06:42:15.414Z,19.25
2018-01-29T06:44:42.942Z,19.97
2018-01-29T06:47:10.789Z,20.10
2018-01-29T06:49:38.336Z,24.83
2018-01-29T06:52:06.695Z,24.40
2018-01-29T06:54:34.319Z,22.80
2018-01-29T06:57:01.908Z,24.67
2018-01-29T06:59:29.518Z,23.23
2018-01-29T07:01:57.854Z,24.53
2018-01-29T07:04:25.455Z,20.40
2018-01-29T07:06:52.991Z,26.00
2018-01-29T07:09:20.714Z,19.87
2018-01-29T07:11:48.260Z,21.40
2018-01-29T07:14:16.528Z,22.48
2018-01-29T07:16:44.086Z,20.70
2018-01-29T07:19:12.399Z,24.40
2018-01-29T07:21:40.102Z,21.43
2018-01-29T07:24:07.996Z,20.50
2018-01-29T07:26:36.299Z,20.35
2018-01-29T07:29:03.832Z,24.53
2018-01-29T07:31:32.351Z,23.08
2018-01-29T07:33:59.887Z,24.67
2018-01-29T07:36:27.548Z,20.67
2018-01-29T07:38:55.120Z,22.43
2018-01-29T07:41:22.660Z,21.70
2018-01-29T07:43:51.033Z,23.33
2018-01-29T07:46:18.636Z,22.55
2018-01-29T07:48:46.176Z,29.23
2018-01-29T07:51:26.041Z,23.23
2018-01-29T07:56:58.470Z,25.37
2018-01-29T07:59:26.016Z,22.13
2018-01-29T08:01:53.556Z,24.53
2018-01-29T08:04:21.135Z,21.40
2018-01-29T08:06:48.681Z,21.10
2018-01-29T08:09:16.647Z,29.92
2018-01-29T08:11:44.949Z,28.90
2018-01-29T08:14:12.504Z,25.37
2018-01-29T08:16:40.044Z,24.70
2018-01-29T08:19:07.652Z,25.10
2018-01-29T08:21:35.192Z,27.57
2018-01-29T08:24:02.728Z,30.30
2018-01-29T08:26:30.377Z,26.35
2018-01-29T08:28:57.976Z,29.07
2018-01-29T08:31:25.528Z,29.85
2018-01-29T08:33:53.412Z,29.53
2018-01-29T08:36:20.952Z,29.75
2018-01-29T08:38:48.498Z,28.38
2018-01-29T08:41:16.536Z,25.95
2018-01-29T08:43:44.072Z,31.73
2018-01-29T08:46:11.616Z,28.40
2018-01-29T08:48:39.272Z,20.97
2018-01-29T08:51:07.292Z,17.40
2018-01-29T08:53:34.844Z,24.40
2018-01-29T08:56:02.936Z,20.37
2018-01-29T08:58:30.520Z,21.20
2018-01-29T09:00:58.069Z,20.43
2018-01-29T09:03:25.637Z,17.33
2018-01-29T09:05:53.204Z,18.23
2018-01-29T09:08:20.745Z,16.25
2018-01-29T09:10:49.088Z,15.00
2018-01-29T09:13:16.664Z,18.07
2018-01-29T09:15:44.211Z,18.93
2018-01-29T09:18:12.773Z,19.20
2018-01-29T09:20:40.319Z,26.40
2018-01-29T09:23:07.855Z,21.50
2018-01-29T09:25:35.437Z,18.80
2018-01-29T09:28:02.985Z,18.80
2018-01-29T09:30:30.637Z,19.92
2018-01-29T09:32:58.204Z,18.17
2018-01-29T09:35:25.740Z,16.80
2018-01-29T09:37:53.300Z,15.87
2018-01-29T09:40:22.006Z,19.20
2018-01-29T09:42:49.540Z,21.10
2018-01-29T09:45:17.084Z,19.43
2018-01-29T09:47:44.656Z,15.90
2018-01-29T09:50:12.200Z,23.13
2018-01-29T09:52:40.517Z,15.97
2018-01-29T09:55:08.096Z,14.63
2018-01-29T09:57:35.641Z,18.10
2018-01-29T10:00:03.328Z,14.30
2018-01-29T10:02:31.173Z,21.43
2018-01-29T10:04:58.751Z,19.63
2018-01-29T10:07:26.294Z,16.97
2018-01-29T10:09:53.867Z,14.90
2018-01-29T10:12:21.408Z,13.43
2018-01-29T10:14:48.947Z,13.10
2018-01-29T10:17:16.513Z,13.73
2018-01-29T10:19:44.064Z,14.43
2018-01-29T10:22:11.611Z,17.13
2018-01-29T10:24:40.560Z,12.80
2018-01-29T10:27:08.094Z,15.53
2018-01-29T10:29:36.415Z,15.10
2018-01-29T10:32:03.989Z,15.37
2018-01-29T10:34:31.543Z,16.67
2018-01-29T10:36:59.091Z,12.27
2018-01-29T10:39:26.658Z,14.17
2018-01-29T10:41:54.252Z,12.10
2018-01-29T10:44:21.807Z,13.60
2018-01-29T10:46:50.740Z,14.90
2018-01-29T10:49:18.292Z,16.57
2018-01-29T10:51:45.830Z,14.13
2018-01-29T10:54:15.371Z,13.38
2018-01-29T10:56:42.911Z,14.07
2018-01-29T10:59:10.455Z,13.70
2018-01-29T11:01:44.258Z,14.23
2018-01-29T11:04:11.794Z,12.10
2018-01-29T11:06:39.331Z,15.80
2018-01-29T11:09:07.691Z,18.43
2018-01-29T11:11:35.240Z,15.70
2018-01-29T11:14:02.780Z,19.90
2018-01-29T11:16:30.366Z,16.43
2018-01-29T11:18:57.908Z,20.30
2018-01-29T11:21:25.446Z,17.27
2018-01-29T11:23:53.011Z,18.57
2018-01-29T11:26:20.555Z,20.00
2018-01-29T11:28:48.974Z,18.50
2018-01-29T11:31:17.012Z,16.53
2018-01-29T11:33:45.317Z,18.27
2018-01-29T11:36:19.378Z,19.23
2018-01-29T11:40:48.327Z,16.37
2018-01-29T11:43:16.487Z,16.80
2018-01-29T11:45:44.893Z,18.57
2018-01-29T11:48:12.435Z,17.37
2018-01-29T11:50:40.714Z,18.53
2018-01-29T11:53:08.255Z,15.97
2018-01-29T11:55:35.808Z,17.10
2018-01-29T11:58:03.371Z,16.13
2018-01-29T12:00:31.701Z,16.02
2018-01-29T12:02:59.471Z,16.20
2018-01-29T12:05:27.243Z,13.93
2018-01-29T12:07:54.779Z,11.03
2018-01-29T12:10:22.318Z,15.23
2018-01-29T12:12:50.567Z,14.07
2018-01-29T12:15:18.875Z,10.63
2018-01-29T12:17:46.411Z,10.60
2018-01-29T12:20:16.517Z,11.65
2018-01-29T12:22:44.052Z,9.37
2018-01-29T12:25:11.586Z,9.90
2018-01-29T12:27:39.394Z,14.53
2018-01-29T12:30:06.931Z,35.73
2018-01-29T12:32:34.507Z,11.02
2018-01-29T12:35:02.364Z,13.53
2018-01-29T12:37:29.903Z,10.50
2018-01-29T12:39:57.444Z,11.90
2018-01-29T12:42:25.020Z,10.17
2018-01-29T12:44:52.566Z,9.73
2018-01-29T12:47:20.105Z,9.80
2018-01-29T12:49:47.692Z,10.10
2018-01-29T12:52:16.282Z,8.80
2018-01-29T12:54:43.827Z,10.30
2018-01-29T12:57:12.149Z,5.50
2018-01-29T12:59:39.682Z,6.10
2018-01-29T13:02:07.219Z,6.03
2018-01-29T13:04:36.018Z,8.30
2018-01-29T13:07:03.560Z,5.93
2018-01-29T13:09:31.879Z,6.40
2018-01-29T13:11:59.963Z,5.93
2018-01-29T13:14:27.495Z,9.95
2018-01-29T13:16:56.263Z,8.63
2018-01-29T13:19:24.156Z,5.62
2018-01-29T13:21:51.715Z,10.10
2018-01-29T13:24:19.309Z,5.17
2018-01-29T13:26:46.955Z,5.90
2018-01-29T13:29:15.491Z,5.25
2018-01-29T13:31:43.079Z,5.13
2018-01-29T13:34:10.644Z,4.90
2018-01-29T13:36:38.375Z,4.93
2018-01-29T13:39:05.906Z,5.80
2018-01-29T13:41:34.299Z,5.55
2018-01-29T13:44:01.845Z,5.83
2018-01-29T13:46:29.391Z,5.70
2018-01-29T13:48:56.956Z,4.43
2018-01-29T13:51:24.487Z,5.50
2018-01-29T13:53:52.142Z,5.10
2018-01-29T13:56:19.712Z,5.12
2018-01-29T13:58:47.303Z,4.70
2018-01-29T14:01:16.279Z,6.30
2018-01-29T14:03:43.932Z,5.70
2018-01-29T14:06:11.975Z,4.53
2018-01-29T14:08:39.532Z,5.32
2018-01-29T14:11:09.239Z,5.60
2018-01-29T14:13:36.775Z,6.23
2018-01-29T14:16:05.092Z,5.33
2018-01-29T14:18:33.021Z,4.95
2018-01-29T14:21:01.348Z,4.93
2018-01-29T14:23:29.681Z,6.73
2018-01-29T14:25:57.488Z,5.17
2018-01-29T14:28:25.808Z,5.13
2018-01-29T14:30:53.375Z,5.40
2018-01-29T14:33:20.959Z,5.00
2018-01-29T14:35:48.524Z,11.80
2018-01-29T14:38:17.240Z,5.50
2018-01-29T14:40:47.409Z,5.90
2018-01-29T14:43:16.044Z,7.40
2018-01-29T14:45:43.621Z,5.28
2018-01-29T14:48:12.723Z,4.63
2018-01-29T14:50:40.358Z,5.40
2018-01-29T14:53:07.908Z,3.87
2018-01-29T14:55:35.503Z,4.45
2018-01-29T14:58:03.082Z,4.50
2018-01-29T15:00:30.668Z,6.57
2018-01-29T15:03:00.848Z,5.07
2018-01-29T15:05:28.452Z,4.90
2018-01-29T15:07:56.649Z,4.03
2018-01-29T15:10:24.576Z,6.03
2018-01-29T15:12:54.397Z,6.50
2018-01-29T15:15:21.983Z,5.00
2018-01-29T15:17:49.783Z,6.20
2018-01-29T15:20:17.859Z,4.72
2018-01-29T15:22:46.199Z,5.73
2018-01-29T15:25:27.831Z,14.38
2018-01-29T15:32:19.103Z,4.73
2018-01-29T15:34:47.472Z,6.47
2018-01-29T15:37:16.407Z,4.85
2018-01-29T15:39:43.978Z,14.33
2018-01-29T15:42:11.510Z,6.07
2018-01-29T15:44:39.851Z,5.00
2018-01-29T15:47:07.474Z,5.15
2018-01-29T15:49:35.016Z,4.00
2018-01-29T15:52:02.549Z,5.80
2018-01-29T15:54:30.124Z,4.50
2018-01-29T15:56:58.432Z,5.80
2018-01-29T15:59:25.963Z,5.00
2018-01-29T16:01:53.543Z,6.20
2018-01-29T16:04:21.091Z,5.18
2018-01-29T16:06:49.395Z,4.93
2018-01-29T16:09:18.227Z,4.90
2018-01-29T16:11:45.757Z,6.00
2018-01-29T16:14:14.627Z,12.88
2018-01-29T16:16:47.173Z,5.40
2018-01-29T16:19:17.407Z,5.62
2018-01-29T16:21:49.911Z,4.20
2018-01-29T16:24:17.447Z,4.57
2018-01-29T16:26:45.029Z,6.20
2018-01-29T16:29:13.838Z,5.50
2018-01-29T16:31:41.392Z,6.43
2018-01-29T16:34:13.349Z,6.17
2018-01-29T16:36:45.971Z,8.50
2018-01-29T16:39:25.523Z,15.57
2018-01-29T16:45:07.935Z,11.37
2018-01-29T16:47:35.612Z,23.33
2018-01-29T16:50:03.245Z,19.20
2018-01-29T16:52:34.173Z,13.87
2018-01-29T16:55:02.083Z,9.03
2018-01-29T16:57:30.404Z,10.75
2018-01-29T16:59:58.827Z,8.47
2018-01-29T17:02:27.400Z,7.93
2018-01-29T17:04:55.051Z,9.00
2018-01-29T17:07:29.003Z,11.02
2018-01-29T17:09:58.444Z,10.65
2018-01-29T17:12:26.108Z,9.57
2018-01-29T17:14:53.969Z,10.40
2018-01-29T17:20:03.557Z,10.98
2018-01-29T17:22:34.453Z,13.40
2018-01-29T17:25:02.042Z,12.23
2018-01-29T17:27:29.686Z,10.50
2018-01-29T17:29:57.267Z,11.27
2018-01-29T17:35:04.155Z,10.77
2018-01-29T17:37:31.788Z,13.35
2018-01-29T17:40:00.385Z,15.35
2018-01-29T17:42:33.457Z,12.93
2018-01-29T17:45:03.521Z,13.80
2018-01-29T17:47:31.206Z,12.30
2018-01-29T17:49:58.858Z,11.85
2018-01-29T17:52:26.395Z,19.92
2018-01-29T17:54:53.973Z,15.37
2018-01-29T17:57:21.591Z,16.20
2018-01-29T17:59:49.140Z,16.20
2018-01-29T18:02:16.696Z,13.20
2018-01-29T18:04:45.545Z,12.43
2018-01-29T18:07:19.549Z,11.95
2018-01-29T18:12:40.247Z,12.13
2018-01-29T18:15:08.220Z,13.00
2018-01-29T18:17:36.050Z,13.55
2018-01-29T18:20:04.547Z,14.40
2018-01-29T18:22:32.143Z,12.27
2018-01-29T18:25:02.442Z,20.27
2018-01-29T18:27:30.022Z,13.00
2018-01-29T18:29:58.596Z,16.77
2018-01-29T18:32:26.215Z,13.30
2018-01-29T18:34:53.816Z,14.70
2018-01-29T18:37:21.391Z,18.20
2018-01-29T18:39:49.049Z,13.70
2018-01-29T18:42:17.246Z,18.90
2018-01-29T18:44:46.920Z,17.83
2018-01-29T18:47:15.546Z,14.43
2018-01-29T18:49:43.963Z,11.20
2018-01-29T18:52:11.504Z,14.40
2018-01-29T18:54:39.099Z,16.53
2018-01-29T18:57:06.689Z,16.13
2018-01-29T18:59:34.529Z,11.80
2018-01-29T19:02:02.059Z,16.60
2018-01-29T19:04:30.876Z,18.37
2018-01-29T19:06:58.538Z,15.90
2018-01-29T19:09:27.156Z,18.70
2018-01-29T19:11:54.737Z,15.57
2018-01-29T19:14:22.575Z,21.80
2018-01-29T19:16:50.163Z,18.67
2018-01-29T19:19:18.610Z,19.80
2018-01-29T19:21:46.176Z,17.67
2018-01-29T19:24:25.768Z,19.63
2018-01-29T19:29:27.894Z,16.33
2018-01-29T19:31:55.439Z,19.00
2018-01-29T19:34:23.393Z,18.10
2018-01-29T19:36:51.033Z,18.07
2018-01-29T19:39:18.682Z,18.83
2018-01-29T19:41:46.270Z,17.70
2018-01-29T19:44:24.600Z,21.62
2018-01-29T19:49:43.711Z,20.77
2018-01-29T19:52:11.348Z,22.57
2018-01-29T19:54:38.894Z,18.10
2018-01-29T19:57:06.519Z,20.52
2018-01-29T19:59:34.924Z,20.03
2018-01-29T20:02:03.278Z,18.20
2018-01-29T20:04:31.453Z,20.43
2018-01-29T20:06:59.771Z,18.40
2018-01-29T20:09:27.351Z,18.93
2018-01-29T20:11:54.915Z,18.27
2018-01-29T20:14:23.611Z,18.30
2018-01-29T20:16:51.167Z,19.43
2018-01-29T20:19:18.786Z,18.55
2018-01-29T20:21:46.361Z,23.57
2018-01-29T20:24:25.003Z,21.75
2018-01-29T20:30:09.124Z,20.37
2018-01-29T20:32:37.476Z,20.40
2018-01-29T20:35:05.143Z,21.27
2018-01-29T20:37:32.811Z,20.05
2018-01-29T20:40:00.404Z,21.70
2018-01-29T20:42:27.999Z,20.43
2018-01-29T20:44:55.651Z,20.40
2018-01-29T20:47:23.246Z,20.52
2018-01-29T20:49:50.830Z,23.03
2018-01-29T20:52:19.214Z,23.30
2018-01-29T20:54:46.801Z,21.57
2018-01-29T20:57:20.798Z,21.67
2018-01-29T21:06:09.494Z,20.50
2018-01-29T21:08:37.039Z,17.53
2018-01-29T21:11:04.631Z,16.20
2018-01-29T21:13:32.243Z,17.10
2018-01-29T21:16:00.179Z,20.43
2018-01-29T21:18:27.771Z,15.87
2018-01-29T21:20:55.430Z,12.77
2018-01-29T21:23:23.022Z,13.30
2018-01-29T21:25:50.560Z,12.07
2018-01-29T21:28:18.757Z,13.77
2018-01-29T21:30:47.311Z,12.40
2018-01-29T21:33:17.335Z,14.10
2018-01-29T21:35:44.934Z,11.17
2018-01-29T21:38:12.538Z,12.48
2018-01-29T21:40:40.134Z,11.07
2018-01-29T21:43:09.488Z,12.00
2018-01-29T21:45:37.113Z,12.57
2018-01-29T21:48:04.706Z,11.10
2018-01-29T21:50:33.287Z,10.47
2018-01-29T21:53:00.874Z,11.33
2018-01-29T21:55:29.683Z,11.05
2018-01-29T21:57:57.244Z,13.30
2018-01-29T22:00:25.660Z,11.35
2018-01-29T22:02:53.980Z,12.90
2018-01-29T22:05:21.616Z,11.70
2018-01-29T22:07:50.422Z,11.83
2018-01-29T22:10:19.030Z,12.07
2018-01-29T22:12:47.460Z,11.67
2018-01-29T22:15:17.296Z,10.77
2018-01-29T22:17:46.242Z,10.43
2018-01-29T22:20:16.308Z,9.75
2018-01-29T22:22:45.639Z,9.70
2018-01-29T22:25:25.239Z,10.63
2018-01-29T22:31:08.003Z,9.27
2018-01-29T22:33:36.084Z,8.50
2018-01-29T22:36:03.652Z,8.17
2018-01-29T22:38:31.795Z,8.07
2018-01-29T22:40:59.344Z,8.93
2018-01-29T22:43:26.929Z,11.03
2018-01-29T22:45:54.541Z,7.23
2018-01-29T22:48:22.075Z,6.53
2018-01-29T22:50:49.647Z,5.70
2018-01-29T22:53:18.629Z,7.00
2018-01-29T22:55:46.957Z,9.60
2018-01-29T22:58:15.562Z,6.03
2018-01-29T23:00:43.111Z,7.33
2018-01-29T23:03:10.668Z,4.97
2018-01-29T23:05:38.205Z,4.83
2018-01-29T23:08:05.787Z,5.43
2018-01-29T23:10:33.319Z,4.60
2018-01-29T23:13:00.853Z,4.23
2018-01-29T23:15:29.707Z,4.57
2018-01-29T23:17:57.715Z,5.50
2018-01-29T23:20:25.243Z,5.18
2018-01-29T23:22:53.279Z,6.03
2018-01-29T23:25:21.186Z,4.40
2018-01-29T23:27:48.730Z,4.70
2018-01-29T23:30:16.519Z,5.40
2018-01-29T23:32:44.044Z,5.03
2018-01-29T23:35:11.575Z,5.10
2018-01-29T23:37:39.199Z,4.20
2018-01-29T23:40:13.095Z,4.10
2018-01-29T23:42:40.655Z,3.27
2018-01-29T23:45:08.187Z,3.47
2018-01-29T23:47:35.723Z,3.30
2018-01-29T23:50:03.283Z,3.33
2018-01-29T23:52:30.807Z,3.37
2018-01-29T23:54:58.336Z,2.90
2018-01-29T23:57:26.342Z,2.83
2018-01-29T23:59:53.867Z,3.20
